createdAt,value
2023-06-26T00:01:58.588Z,8.60
2023-06-26T00:07:01.600Z,9.40
2023-06-26T00:12:05.038Z,8.80
2023-06-26T00:17:08.020Z,8.70
2023-06-26T00:22:11.034Z,9.40
2023-06-26T00:27:14.030Z,9.80
2023-06-26T00:32:17.281Z,9.10
2023-06-26T00:37:20.232Z,9.50
2023-06-26T00:42:23.181Z,9.10
2023-06-26T00:47:26.778Z,9.60
2023-06-26T00:52:29.891Z,10.20
2023-06-26T00:57:35.546Z,10.00
2023-06-26T01:02:40.129Z,10.10
2023-06-26T01:07:46.171Z,9.70
2023-06-26T01:12:49.077Z,11.10
2023-06-26T01:17:52.252Z,10.80
2023-06-26T01:23:16.038Z,11.10
2023-06-26T01:28:19.039Z,10.20
2023-06-26T01:33:22.021Z,9.90
2023-06-26T01:38:24.936Z,10.30
2023-06-26T01:43:49.348Z,10.10
2023-06-26T01:49:04.634Z,10.40
2023-06-26T01:54:10.897Z,9.80
2023-06-26T01:59:16.740Z,9.30
2023-06-26T02:04:20.136Z,9.70
2023-06-26T02:09:23.240Z,8.90
2023-06-26T02:14:26.204Z,9.10
2023-06-26T02:19:29.056Z,9.40
2023-06-26T02:24:32.085Z,9.80
2023-06-26T02:29:34.977Z,9.30
2023-06-26T02:34:39.412Z,9.60
2023-06-26T02:39:45.333Z,9.80
2023-06-26T02:44:48.260Z,9.80
2023-06-26T02:49:51.236Z,9.90
2023-06-26T02:54:54.206Z,9.80
2023-06-26T02:59:57.135Z,10.00
2023-06-26T03:05:00.064Z,11.70
2023-06-26T03:10:03.068Z,12.00
2023-06-26T03:15:06.707Z,12.40
2023-06-26T03:20:10.479Z,12.40
2023-06-26T03:25:13.521Z,13.70
2023-06-26T03:30:16.893Z,12.40
2023-06-26T03:35:20.077Z,12.90
2023-06-26T03:40:24.570Z,12.00
2023-06-26T03:45:27.840Z,12.90
2023-06-26T03:50:30.872Z,13.00
2023-06-26T03:55:33.754Z,12.20
2023-06-26T04:00:36.729Z,12.40
2023-06-26T04:05:39.903Z,12.90
2023-06-26T04:10:43.220Z,12.50
2023-06-26T04:15:47.716Z,11.50
2023-06-26T04:21:13.633Z,11.40
2023-06-26T04:26:16.666Z,11.50
2023-06-26T04:31:19.727Z,12.90
2023-06-26T04:36:22.882Z,12.60
2023-06-26T04:41:26.409Z,11.10
2023-06-26T04:46:29.475Z,11.60
2023-06-26T04:51:32.956Z,11.20
2023-06-26T04:56:36.480Z,11.70
2023-06-26T05:01:40.812Z,10.70
2023-06-26T05:06:43.955Z,9.60
2023-06-26T05:11:46.846Z,9.70
2023-06-26T05:16:49.815Z,8.90
2023-06-26T05:21:52.717Z,9.00
2023-06-26T05:27:11.931Z,8.80
2023-06-26T05:32:18.930Z,8.30
2023-06-26T05:37:25.325Z,8.70
2023-06-26T05:42:29.374Z,8.80
2023-06-26T05:47:32.524Z,9.60
2023-06-26T05:52:36.409Z,9.00
2023-06-26T05:57:41.895Z,10.30
2023-06-26T06:02:44.939Z,9.30
2023-06-26T06:07:49.561Z,9.30
2023-06-26T06:12:53.350Z,8.60
2023-06-26T06:17:58.383Z,7.80
2023-06-26T06:23:04.523Z,8.60
2023-06-26T06:28:07.438Z,8.30
2023-06-26T06:33:10.337Z,8.50
2023-06-26T06:38:13.243Z,7.70
2023-06-26T06:43:16.683Z,7.60
2023-06-26T06:48:23.707Z,7.00
2023-06-26T06:53:26.899Z,7.80
2023-06-26T06:58:35.152Z,7.50
2023-06-26T07:03:39.452Z,6.70
2023-06-26T07:08:42.549Z,6.50
2023-06-26T07:13:48.432Z,6.10
2023-06-26T07:18:53.327Z,6.50
2023-06-26T07:23:57.711Z,6.00
2023-06-26T07:29:01.517Z,6.80
2023-06-26T07:34:04.404Z,6.70
2023-06-26T07:39:07.441Z,5.70
2023-06-26T07:44:10.652Z,5.80
2023-06-26T07:49:13.652Z,5.80
2023-06-26T07:54:17.744Z,5.60
2023-06-26T07:59:22.114Z,5.70
2023-06-26T08:04:27.297Z,5.20
2023-06-26T08:09:31.112Z,4.20
2023-06-26T08:14:35.040Z,4.10
2023-06-26T08:19:41.525Z,4.30
2023-06-26T08:24:44.797Z,4.50
2023-06-26T08:29:47.824Z,4.40
2023-06-26T08:34:51.887Z,4.50
2023-06-26T08:39:55.211Z,4.00
2023-06-26T08:45:02.210Z,4.00
2023-06-26T08:50:11.846Z,4.20
2023-06-26T08:55:15.488Z,3.80
2023-06-26T09:00:19.156Z,3.90
2023-06-26T09:05:22.139Z,3.20
2023-06-26T09:10:25.633Z,4.00
2023-06-26T09:15:44.281Z,3.10
2023-06-26T09:20:49.543Z,3.30
2023-06-26T09:25:52.881Z,3.30
2023-06-26T09:31:09.442Z,3.70
2023-06-26T09:36:36.354Z,3.60
2023-06-26T09:41:47.827Z,3.80
2023-06-26T09:46:50.900Z,3.90
2023-06-26T09:51:55.307Z,3.20
2023-06-26T09:57:14.574Z,3.60
2023-06-26T10:02:19.293Z,3.40
2023-06-26T10:07:24.538Z,3.40
2023-06-26T10:12:34.967Z,3.60
2023-06-26T10:17:37.999Z,3.20
2023-06-26T10:22:47.514Z,3.70
2023-06-26T10:28:01.368Z,3.20
2023-06-26T10:33:08.428Z,3.40
2023-06-26T10:39:13.378Z,3.20
2023-06-26T10:44:22.106Z,3.00
2023-06-26T10:49:30.749Z,3.10
2023-06-26T10:54:36.584Z,3.30
2023-06-26T10:59:41.051Z,3.20
2023-06-26T11:04:55.720Z,2.90
2023-06-26T11:10:01.036Z,2.60
2023-06-26T11:15:18.299Z,2.60
2023-06-26T11:20:21.316Z,2.90
2023-06-26T11:25:36.164Z,3.00
2023-06-26T11:30:42.419Z,3.10
2023-06-26T11:35:49.588Z,2.70
2023-06-26T11:40:55.060Z,2.50
2023-06-26T11:46:05.234Z,2.60
2023-06-26T11:51:31.540Z,2.60
2023-06-26T11:56:36.963Z,2.60
2023-06-26T12:01:42.134Z,2.60
2023-06-26T12:06:49.713Z,2.80
2023-06-26T12:11:56.427Z,2.60
2023-06-26T12:17:15.221Z,2.20
2023-06-26T12:22:22.159Z,2.40
2023-06-26T12:27:25.115Z,2.50
2023-06-26T12:32:28.417Z,2.30
2023-06-26T12:42:36.396Z,2.40
2023-06-26T12:47:39.766Z,2.50
2023-06-26T12:52:42.629Z,2.60
2023-06-26T12:57:45.659Z,2.40
2023-06-26T13:02:49.783Z,2.30
2023-06-26T13:07:56.413Z,2.40
2023-06-26T13:12:59.294Z,2.30
2023-06-26T13:18:02.327Z,2.20
2023-06-26T13:23:06.587Z,2.40
2023-06-26T13:28:13.616Z,2.30
2023-06-26T13:33:17.129Z,2.10
2023-06-26T13:38:25.560Z,2.20
2023-06-26T13:43:29.869Z,2.00
2023-06-26T13:48:40.228Z,2.10
2023-06-26T13:53:44.066Z,2.50
2023-06-26T13:58:47.089Z,2.20
2023-06-26T14:03:50.170Z,2.10
2023-06-26T14:08:53.105Z,2.00
2023-06-26T14:13:57.324Z,2.30
2023-06-26T14:24:06.290Z,2.30
2023-06-26T14:29:09.461Z,2.00
2023-06-26T14:39:19.392Z,2.10
2023-06-26T14:44:22.998Z,2.40
2023-06-26T14:49:26.620Z,2.50
2023-06-26T14:54:29.613Z,2.80
2023-06-26T14:59:32.632Z,2.60
2023-06-26T15:04:36.957Z,2.80
2023-06-26T15:09:40.042Z,2.60
2023-06-26T15:14:45.301Z,2.70
2023-06-26T15:19:48.967Z,3.00
2023-06-26T15:24:55.416Z,2.90
2023-06-26T15:29:59.635Z,2.70
2023-06-26T15:35:02.598Z,2.90
2023-06-26T15:40:06.657Z,2.80
2023-06-26T15:45:12.625Z,2.50
2023-06-26T15:50:15.619Z,2.80
2023-06-26T15:55:18.556Z,3.30
2023-06-26T16:00:22.047Z,3.10
2023-06-26T16:05:26.246Z,3.20
2023-06-26T16:10:30.595Z,2.90
2023-06-26T16:15:33.521Z,3.10
2023-06-26T16:20:36.756Z,3.50
2023-06-26T16:25:58.841Z,3.10
2023-06-26T16:31:02.304Z,3.10
2023-06-26T16:36:13.144Z,3.00
2023-06-26T16:41:19.103Z,2.80
2023-06-26T16:46:22.360Z,3.20
2023-06-26T16:51:25.355Z,3.30
2023-06-26T16:56:31.756Z,3.20
2023-06-26T17:01:36.087Z,3.20
2023-06-26T17:06:39.216Z,3.30
2023-06-26T17:11:42.941Z,3.50
2023-06-26T17:16:48.987Z,3.50
2023-06-26T17:21:53.342Z,3.30
2023-06-26T17:27:16.483Z,3.30
2023-06-26T17:32:22.249Z,3.50
2023-06-26T17:37:27.897Z,3.40
2023-06-26T17:42:30.856Z,3.70
2023-06-26T17:47:33.882Z,3.30
2023-06-26T17:52:37.154Z,3.40
2023-06-26T17:57:40.496Z,3.80
2023-06-26T18:02:43.635Z,3.70
2023-06-26T18:08:03.059Z,3.70
2023-06-26T18:13:07.256Z,3.50
2023-06-26T18:18:10.238Z,3.90
2023-06-26T18:23:14.520Z,3.70
2023-06-26T18:28:17.632Z,4.30
2023-06-26T18:33:23.460Z,4.20
2023-06-26T18:38:28.106Z,4.20
2023-06-26T18:43:33.649Z,4.40
2023-06-26T18:48:37.899Z,4.60
2023-06-26T18:53:42.516Z,4.30
2023-06-26T18:58:48.360Z,4.80
2023-06-26T19:03:53.656Z,4.50
2023-06-26T19:08:56.756Z,4.20
2023-06-26T19:13:59.846Z,4.50
2023-06-26T19:19:03.444Z,4.90
2023-06-26T19:24:06.511Z,4.50
2023-06-26T19:29:09.364Z,4.40
2023-06-26T19:34:12.413Z,4.70
2023-06-26T19:39:15.694Z,4.10
2023-06-26T19:44:18.994Z,4.30
2023-06-26T19:49:22.096Z,4.20
2023-06-26T19:54:27.434Z,4.60
2023-06-26T19:59:33.333Z,4.80
2023-06-26T20:04:37.069Z,5.10
2023-06-26T20:09:39.991Z,4.60
2023-06-26T20:14:42.948Z,4.60
2023-06-26T20:19:45.984Z,5.20
2023-06-26T20:24:48.980Z,4.90
2023-06-26T20:29:51.847Z,4.70
2023-06-26T20:34:55.163Z,6.00
2023-06-26T20:39:58.487Z,5.80
2023-06-26T20:45:01.897Z,6.20
2023-06-26T20:50:09.687Z,5.90
2023-06-26T21:00:16.988Z,6.30
2023-06-26T21:05:19.925Z,6.30
2023-06-26T21:10:22.895Z,6.40
2023-06-26T21:15:25.905Z,6.50
2023-06-26T21:20:28.890Z,6.40
2023-06-26T21:25:31.950Z,6.40
2023-06-26T21:30:35.353Z,6.50
2023-06-26T21:35:43.499Z,6.70
2023-06-26T21:40:47.636Z,6.00
2023-06-26T21:45:50.587Z,6.80
2023-06-26T21:50:55.876Z,6.30
2023-06-26T21:56:00.256Z,6.80
2023-06-26T22:07:07.136Z,6.80
2023-06-26T22:12:10.924Z,7.20
2023-06-26T22:17:13.906Z,7.30
2023-06-26T22:22:16.776Z,6.90
2023-06-26T22:27:19.903Z,6.80
2023-06-26T22:32:22.962Z,7.20
2023-06-26T22:37:26.076Z,6.80
2023-06-26T22:42:29.215Z,7.30
2023-06-26T22:47:32.733Z,7.70
2023-06-26T22:52:35.618Z,8.40
2023-06-26T22:57:39.114Z,8.00
2023-06-26T23:02:42.080Z,8.10
2023-06-26T23:07:45.238Z,7.60
2023-06-26T23:12:48.275Z,8.40
2023-06-26T23:17:51.251Z,8.20
2023-06-26T23:22:54.250Z,8.70
2023-06-26T23:28:02.079Z,8.90
2023-06-26T23:33:07.010Z,9.00
2023-06-26T23:38:10.208Z,8.90
2023-06-26T23:43:15.296Z,8.70
2023-06-26T23:48:18.234Z,9.10
2023-06-26T23:53:21.146Z,9.30
2023-06-26T23:58:24.072Z,9.30
